createdAt,value
2023-03-26T00:00:00.605Z,807.7
2023-03-26T00:01:44.266Z,807.3
2023-03-26T00:03:27.971Z,809.5
2023-03-26T00:05:11.668Z,807.5
2023-03-26T00:06:55.506Z,805.2
2023-03-26T00:08:39.084Z,806.6
2023-03-26T00:10:22.783Z,808.1
2023-03-26T00:12:06.481Z,808.4
2023-03-26T00:13:50.188Z,804.6
2023-03-26T00:15:33.924Z,803
2023-03-26T00:17:17.593Z,804.8
2023-03-26T00:20:44.988Z,805.4
2023-03-26T00:22:28.703Z,805.3
2023-03-26T00:24:12.405Z,807.2
2023-03-26T00:25:56.099Z,807.6
2023-03-26T00:27:39.815Z,805
2023-03-26T00:29:23.583Z,804.8
2023-03-26T00:31:07.268Z,803.7
2023-03-26T00:32:50.922Z,805.8
2023-03-26T00:34:34.614Z,806.9
2023-03-26T00:36:18.378Z,807.2
2023-03-26T00:38:02.081Z,803.7
2023-03-26T00:39:45.871Z,800.3
2023-03-26T00:41:29.554Z,796.7
2023-03-26T00:43:13.141Z,794.5
2023-03-26T00:44:56.891Z,796.3
2023-03-26T00:46:40.636Z,798
2023-03-26T00:48:24.245Z,801.5
2023-03-26T00:50:07.965Z,804.7
2023-03-26T00:51:51.767Z,806.5
2023-03-26T00:53:35.395Z,808.8
2023-03-26T00:55:19.120Z,810.6
2023-03-26T00:57:02.873Z,811.5
2023-03-26T00:58:46.475Z,809.8
2023-03-26T01:00:30.164Z,810.2
2023-03-26T01:02:13.900Z,810
2023-03-26T01:03:57.586Z,810.7
2023-03-26T01:05:41.381Z,813.5
2023-03-26T01:07:24.979Z,814.8
2023-03-26T01:09:08.750Z,813.3
2023-03-26T01:10:52.394Z,804.2
2023-03-26T01:12:36.138Z,805.4
2023-03-26T01:14:19.923Z,809.4
2023-03-26T01:19:30.891Z,812.3
2023-03-26T01:21:14.633Z,810.5
2023-03-26T01:22:58.421Z,812.5
2023-03-26T01:24:41.998Z,811.5
2023-03-26T01:26:25.698Z,812.6
2023-03-26T01:28:09.415Z,811.8
2023-03-26T01:29:53.184Z,809.8
2023-03-26T01:31:36.828Z,814.2
2023-03-26T01:33:20.536Z,818.7
2023-03-26T01:35:04.215Z,821
2023-03-26T01:36:47.943Z,823.9
2023-03-26T01:38:31.684Z,824.7
2023-03-26T01:40:15.331Z,824.1
2023-03-26T01:41:59.029Z,820.8
2023-03-26T01:43:42.761Z,818.3
2023-03-26T01:45:26.441Z,817.9
2023-03-26T01:47:10.147Z,818.6
2023-03-26T01:48:53.862Z,821.2
2023-03-26T01:50:37.565Z,826.6
2023-03-26T01:52:21.234Z,829.2
2023-03-26T01:54:04.946Z,822.8
2023-03-26T01:55:48.635Z,824.3
2023-03-26T01:57:32.337Z,823.2
2023-03-26T01:59:16.058Z,823.7
2023-03-26T02:00:59.779Z,825.4
2023-03-26T02:02:43.463Z,826.6
2023-03-26T02:04:27.172Z,826.6
2023-03-26T02:06:10.861Z,826.3
2023-03-26T02:07:54.570Z,826.2
2023-03-26T02:09:38.323Z,828.2
2023-03-26T02:11:21.971Z,825.8
2023-03-26T02:13:05.691Z,823.7
2023-03-26T02:14:49.426Z,823.4
2023-03-26T02:16:33.076Z,822.4
2023-03-26T02:18:16.768Z,821.4
2023-03-26T02:20:00.576Z,824.8
2023-03-26T02:21:44.226Z,825.4
2023-03-26T02:23:27.883Z,824.2
2023-03-26T02:25:11.592Z,822.4
2023-03-26T02:26:55.300Z,825.5
2023-03-26T02:28:38.989Z,828.4
2023-03-26T02:30:22.696Z,829.6
2023-03-26T02:32:06.404Z,834
2023-03-26T02:33:50.100Z,834.1
2023-03-26T02:35:33.803Z,834.1
2023-03-26T02:37:17.537Z,833.7
2023-03-26T02:39:01.212Z,833.4
2023-03-26T02:40:44.912Z,835.5
2023-03-26T02:42:28.631Z,834.6
2023-03-26T02:44:12.315Z,834.8
2023-03-26T02:45:56.016Z,834.3
2023-03-26T02:47:39.721Z,832.3
2023-03-26T02:49:23.416Z,834
2023-03-26T02:51:07.128Z,836.9
2023-03-26T02:52:50.838Z,834.4
2023-03-26T02:54:34.532Z,832.8
2023-03-26T02:56:18.241Z,833.3
2023-03-26T02:58:01.951Z,835.1
2023-03-26T02:59:45.637Z,838.9
2023-03-26T03:01:29.340Z,839.7
2023-03-26T03:03:13.046Z,842.9
2023-03-26T03:04:56.751Z,845.9
2023-03-26T03:06:40.467Z,849.6
2023-03-26T03:08:24.155Z,852.3
2023-03-26T03:10:07.901Z,853.8
2023-03-26T03:11:51.549Z,852.5
2023-03-26T03:13:35.266Z,851.7
2023-03-26T03:15:18.965Z,847.8
2023-03-26T03:17:02.793Z,842.6
2023-03-26T03:18:46.370Z,843.7
2023-03-26T03:20:30.059Z,842.6
2023-03-26T03:22:13.769Z,843.9
2023-03-26T03:23:57.475Z,843.7
2023-03-26T03:25:41.165Z,847.7
2023-03-26T03:27:24.879Z,851.5
2023-03-26T03:29:08.623Z,847.6
2023-03-26T03:30:52.277Z,847.6
2023-03-26T03:32:36.007Z,845.3
2023-03-26T03:34:19.693Z,845.4
2023-03-26T03:36:03.397Z,847.5
2023-03-26T03:37:47.092Z,847.2
2023-03-26T03:39:30.801Z,845
2023-03-26T03:41:14.504Z,846.2
2023-03-26T03:42:58.241Z,845.5
2023-03-26T03:44:41.906Z,847.8
2023-03-26T03:46:25.618Z,856
2023-03-26T03:48:09.317Z,848.9
2023-03-26T03:49:53.018Z,848.8
2023-03-26T03:51:36.723Z,852.8
2023-03-26T03:53:20.427Z,859.2
2023-03-26T03:55:04.123Z,859.3
2023-03-26T03:56:47.823Z,854.5
2023-03-26T03:58:31.525Z,849.3
2023-03-26T04:00:15.230Z,851.4
2023-03-26T04:01:58.935Z,850.1
2023-03-26T04:03:42.641Z,852
2023-03-26T04:05:26.336Z,849.8
2023-03-26T04:07:10.084Z,852.1
2023-03-26T04:08:53.744Z,859.3
2023-03-26T04:10:37.448Z,859.8
2023-03-26T04:12:21.149Z,859.4
2023-03-26T04:14:04.852Z,859.9
2023-03-26T04:15:48.556Z,860.3
2023-03-26T04:17:32.255Z,860.1
2023-03-26T04:19:15.969Z,860.4
2023-03-26T04:20:59.663Z,858.3
2023-03-26T04:22:43.359Z,858
2023-03-26T04:24:27.058Z,860.2
2023-03-26T04:26:10.774Z,858.9
2023-03-26T04:27:54.493Z,852.6
2023-03-26T04:29:38.174Z,854.6
2023-03-26T04:31:21.877Z,853.9
2023-03-26T04:33:05.575Z,852.8
2023-03-26T04:34:49.288Z,852.6
2023-03-26T04:36:32.985Z,850.4
2023-03-26T04:38:16.717Z,853.8
2023-03-26T04:40:00.396Z,857.7
2023-03-26T04:41:44.092Z,858.6
2023-03-26T04:43:27.835Z,857
2023-03-26T04:45:11.489Z,861
2023-03-26T04:46:55.245Z,862.1
2023-03-26T04:48:38.907Z,861
2023-03-26T04:50:22.608Z,863.2
2023-03-26T04:52:06.317Z,862.2
2023-03-26T04:53:50.015Z,864
2023-03-26T04:55:33.709Z,864.9
2023-03-26T04:57:17.417Z,863.9
2023-03-26T04:59:01.124Z,857.8
2023-03-26T05:00:44.833Z,859.2
2023-03-26T05:02:28.517Z,863
2023-03-26T05:04:12.212Z,861.9
2023-03-26T05:05:55.930Z,858.5
2023-03-26T05:07:39.656Z,859.9
2023-03-26T05:09:23.335Z,859.1
2023-03-26T05:11:07.169Z,856.6
2023-03-26T05:12:50.755Z,857.2
2023-03-26T05:14:34.437Z,856.5
2023-03-26T05:16:18.168Z,858.5
2023-03-26T05:18:01.847Z,859.6
2023-03-26T05:19:45.548Z,860.3
2023-03-26T05:21:29.258Z,863.9
2023-03-26T05:23:12.957Z,866.9
2023-03-26T05:24:56.659Z,871.7
2023-03-26T05:26:40.359Z,875
2023-03-26T05:28:24.051Z,874.9
2023-03-26T05:30:07.767Z,875.6
2023-03-26T05:31:51.458Z,873.2
2023-03-26T05:33:35.172Z,872.5
2023-03-26T05:35:18.879Z,873.5
2023-03-26T05:37:02.561Z,873.9
2023-03-26T05:38:46.280Z,874.5
2023-03-26T05:40:29.992Z,874.7
2023-03-26T05:42:13.687Z,874.8
2023-03-26T05:43:57.398Z,873.9
2023-03-26T05:45:41.113Z,873.1
2023-03-26T05:47:24.788Z,875.4
2023-03-26T05:49:08.496Z,877.1
2023-03-26T05:50:52.189Z,876.9
2023-03-26T05:52:35.896Z,884.5
2023-03-26T05:54:19.606Z,885.7
2023-03-26T05:56:03.298Z,888.5
2023-03-26T05:57:46.995Z,884.1
2023-03-26T05:59:30.715Z,878.5
2023-03-26T06:01:14.409Z,877.2
2023-03-26T06:02:58.112Z,876
2023-03-26T06:04:41.814Z,871.9
2023-03-26T06:06:25.512Z,872.5
2023-03-26T06:08:09.218Z,878
2023-03-26T06:09:52.917Z,879.9
2023-03-26T06:11:36.627Z,882.5
2023-03-26T06:13:20.325Z,884.1
2023-03-26T06:15:04.019Z,884.5
2023-03-26T06:16:47.730Z,881.4
2023-03-26T06:18:31.429Z,880.6
2023-03-26T06:20:15.152Z,886.1
2023-03-26T06:21:58.843Z,887.2
2023-03-26T06:23:42.565Z,886
2023-03-26T06:25:26.250Z,883.9
2023-03-26T06:27:09.947Z,883.5
2023-03-26T06:28:53.643Z,881.4
2023-03-26T06:30:37.346Z,883
2023-03-26T06:32:21.061Z,884.7
2023-03-26T06:34:04.809Z,886.9
2023-03-26T06:35:48.457Z,888.4
2023-03-26T06:37:32.162Z,886.1
2023-03-26T06:39:15.887Z,883.9
2023-03-26T06:40:59.574Z,883.8
2023-03-26T06:42:43.254Z,884
2023-03-26T06:44:26.963Z,884.4
2023-03-26T06:46:10.733Z,886.9
2023-03-26T06:47:54.372Z,891.6
2023-03-26T06:49:38.104Z,898.2
2023-03-26T06:51:21.776Z,900.2
2023-03-26T06:53:05.509Z,899.7
2023-03-26T06:54:49.193Z,898.3
2023-03-26T06:56:32.890Z,896.4
2023-03-26T06:58:16.623Z,896.7
2023-03-26T07:00:00.331Z,901.4
2023-03-26T07:01:43.991Z,903.1
2023-03-26T07:03:27.829Z,903.7
2023-03-26T07:05:11.505Z,905.6
2023-03-26T07:06:55.204Z,903.5
2023-03-26T07:08:38.816Z,900.7
2023-03-26T07:10:22.595Z,904.5
2023-03-26T07:12:06.273Z,909
2023-03-26T07:13:49.922Z,911.3
2023-03-26T07:15:33.744Z,907.6
2023-03-26T07:17:17.329Z,903
2023-03-26T07:19:01.047Z,901
2023-03-26T07:20:44.720Z,902.1
2023-03-26T07:22:28.448Z,904
2023-03-26T07:24:12.136Z,902.3
2023-03-26T07:25:55.868Z,904.2
2023-03-26T07:27:39.579Z,906.9
2023-03-26T07:29:23.238Z,904.5
2023-03-26T07:31:07.063Z,903.2
2023-03-26T07:32:50.683Z,901.9
2023-03-26T07:34:34.365Z,904.9
2023-03-26T07:36:18.090Z,905.9
2023-03-26T07:38:01.755Z,909.1
2023-03-26T07:39:45.464Z,911.1
2023-03-26T07:41:29.158Z,907.8
2023-03-26T07:43:12.862Z,913.2
2023-03-26T07:44:56.608Z,917
2023-03-26T07:46:40.274Z,918.9
2023-03-26T07:48:23.971Z,920.5
2023-03-26T07:50:07.665Z,922.8
2023-03-26T07:51:51.394Z,921.2
2023-03-26T07:53:35.156Z,917.2
2023-03-26T07:55:18.804Z,912.9
2023-03-26T07:57:02.494Z,911.6
2023-03-26T07:58:46.197Z,909.6
2023-03-26T08:00:29.886Z,910.8
2023-03-26T08:02:13.583Z,912.8
2023-03-26T08:03:57.336Z,915
2023-03-26T08:05:41.002Z,916.7
2023-03-26T08:07:24.691Z,920.8
2023-03-26T08:09:08.401Z,924.2
2023-03-26T08:10:52.088Z,923.6
2023-03-26T08:12:35.800Z,924.9
2023-03-26T08:14:19.502Z,925
2023-03-26T08:16:03.335Z,927.3
2023-03-26T08:17:46.918Z,928.6
2023-03-26T08:19:30.622Z,928.3
2023-03-26T08:21:14.312Z,931.1
2023-03-26T08:22:58.162Z,932.3
2023-03-26T08:24:41.695Z,935.8
2023-03-26T08:26:25.397Z,935.8
2023-03-26T08:28:09.236Z,934.5
2023-03-26T08:29:52.916Z,930.7
2023-03-26T08:31:36.516Z,926.5
2023-03-26T08:33:20.211Z,926.3
2023-03-26T08:35:03.910Z,928.4
2023-03-26T08:36:47.612Z,928.4
2023-03-26T08:38:31.439Z,929.4
2023-03-26T08:40:15.123Z,930.8
2023-03-26T08:41:58.788Z,930.9
2023-03-26T08:43:42.460Z,930.5
2023-03-26T08:45:26.130Z,934
2023-03-26T08:47:09.834Z,936.3
2023-03-26T08:48:53.596Z,939.6
2023-03-26T08:50:37.260Z,942.4
2023-03-26T08:52:20.955Z,937.8
2023-03-26T08:54:04.655Z,942.1
2023-03-26T08:55:48.355Z,942.7
2023-03-26T08:57:32.059Z,937.5
2023-03-26T08:59:15.763Z,937
2023-03-26T09:00:59.577Z,937.6
2023-03-26T09:02:43.350Z,1196.2
2023-03-26T09:04:26.953Z,1366.4
2023-03-26T09:06:10.635Z,1246.1
2023-03-26T09:07:54.358Z,1029.2
2023-03-26T09:09:38.084Z,1013.6
2023-03-26T09:11:21.687Z,1023.4
2023-03-26T09:13:05.375Z,1036.3
2023-03-26T09:14:49.107Z,1043.8
2023-03-26T09:16:32.807Z,1050.5
2023-03-26T09:18:16.524Z,1057
2023-03-26T09:20:00.212Z,1059.9
2023-03-26T09:21:44.011Z,1063.3
2023-03-26T09:23:27.697Z,1065.7
2023-03-26T09:25:11.297Z,1066.1
2023-03-26T09:26:55.009Z,1066.1
2023-03-26T09:28:38.787Z,1063.2
2023-03-26T09:30:22.466Z,1061.4
2023-03-26T09:32:06.114Z,1059.2
2023-03-26T09:33:49.908Z,1055.2
2023-03-26T09:35:33.528Z,1050.3
2023-03-26T09:37:17.245Z,1050.5
2023-03-26T09:39:00.922Z,1053.6
2023-03-26T09:40:44.642Z,1053.8
2023-03-26T09:42:28.331Z,1053.7
2023-03-26T09:44:12.037Z,1055.7
2023-03-26T09:45:55.734Z,1058.2
2023-03-26T09:47:39.437Z,1057.6
2023-03-26T09:49:23.195Z,1056.5
2023-03-26T09:51:06.964Z,1055.2
2023-03-26T09:52:50.657Z,1054.9
2023-03-26T09:54:34.283Z,1051.9
2023-03-26T09:56:17.953Z,1049.9
2023-03-26T09:58:01.665Z,1050.3
2023-03-26T09:59:45.357Z,1049.2
2023-03-26T10:03:12.775Z,1056.8
2023-03-26T10:04:56.469Z,1062.7
2023-03-26T10:06:40.197Z,1063.5
2023-03-26T10:08:23.872Z,1062.8
2023-03-26T10:11:51.273Z,1295.2
2023-03-26T10:13:34.983Z,1265.4
2023-03-26T10:15:18.683Z,1165.1
2023-03-26T10:18:46.087Z,1130.8
2023-03-26T10:20:29.789Z,1126.2
2023-03-26T10:22:13.482Z,1123.1
2023-03-26T10:23:57.183Z,1133.5
2023-03-26T10:25:41.038Z,1137.2
2023-03-26T10:27:24.613Z,1139.3
2023-03-26T10:29:08.296Z,1137.4
2023-03-26T10:30:52.010Z,1141.3
2023-03-26T10:32:35.708Z,1140.1
2023-03-26T10:34:19.405Z,1132.9
2023-03-26T10:36:03.108Z,1129.4
2023-03-26T10:37:46.826Z,1126.1
2023-03-26T10:39:30.504Z,1123.7
2023-03-26T10:41:14.212Z,1125.4
2023-03-26T10:42:57.979Z,1121.1
2023-03-26T10:44:41.615Z,1122
2023-03-26T10:46:25.325Z,1122
2023-03-26T10:48:09.018Z,1118.9
2023-03-26T10:49:52.725Z,1114.8
2023-03-26T10:51:36.433Z,1117.2
2023-03-26T10:53:20.126Z,1118
2023-03-26T10:55:03.820Z,1115.9
2023-03-26T10:56:47.536Z,1116.5
2023-03-26T10:58:31.233Z,1117.3
2023-03-26T11:00:14.927Z,1114.6
2023-03-26T11:01:58.646Z,1113.9
2023-03-26T11:03:42.339Z,1114.4
2023-03-26T11:05:26.064Z,1114
2023-03-26T11:07:09.746Z,1113.5
2023-03-26T11:08:53.465Z,1113.2
2023-03-26T11:10:37.159Z,1115.7
2023-03-26T11:12:20.857Z,1116
2023-03-26T11:14:04.559Z,1119.7
2023-03-26T11:15:48.377Z,1121.7
2023-03-26T11:17:31.971Z,1121.2
2023-03-26T11:19:15.681Z,1120.7
2023-03-26T11:20:59.370Z,1118.9
2023-03-26T11:22:43.078Z,1108.7
2023-03-26T11:24:26.812Z,1105.5
2023-03-26T11:26:10.514Z,1104.2
2023-03-26T11:27:54.324Z,1102
2023-03-26T11:29:38.069Z,1099.4
2023-03-26T11:31:21.669Z,1100.8
2023-03-26T11:33:05.469Z,1096.7
2023-03-26T11:34:48.993Z,1094.8
2023-03-26T11:36:32.704Z,1097.4
2023-03-26T11:38:16.407Z,1097.8
2023-03-26T11:40:00.101Z,1099.9
2023-03-26T11:41:43.812Z,1100.1
2023-03-26T11:43:27.514Z,1098.3
2023-03-26T11:45:11.205Z,1150.1
2023-03-26T11:46:54.910Z,1133.6
2023-03-26T11:48:38.624Z,1123.2
2023-03-26T11:50:22.304Z,1116.8
2023-03-26T11:52:06.031Z,1121.1
2023-03-26T11:53:49.726Z,1125.9
2023-03-26T11:55:33.420Z,1129.4
2023-03-26T11:57:17.136Z,1130.3
2023-03-26T11:59:00.822Z,1130.5
2023-03-26T12:00:44.532Z,1131.9
2023-03-26T12:02:28.230Z,1132.5
2023-03-26T12:04:11.922Z,1129.2
2023-03-26T12:05:55.640Z,1125.8
2023-03-26T12:07:39.327Z,1122.6
2023-03-26T12:09:23.029Z,1116.5
2023-03-26T12:11:06.890Z,1113.1
2023-03-26T12:12:50.432Z,1111.5
2023-03-26T12:14:34.141Z,1112.7
2023-03-26T12:16:17.846Z,1115.5
2023-03-26T12:18:01.542Z,1113.6
2023-03-26T12:19:45.246Z,1111.7
2023-03-26T12:21:29.006Z,1110.2
2023-03-26T12:23:12.649Z,1111.5
2023-03-26T12:24:56.352Z,1107.3
2023-03-26T12:26:40.052Z,1109
2023-03-26T12:28:23.752Z,1099.4
2023-03-26T12:30:07.459Z,1100.8
2023-03-26T12:33:34.902Z,1106.7
2023-03-26T12:35:18.581Z,1105.3
2023-03-26T12:37:02.276Z,1104.8
2023-03-26T12:38:46.004Z,1103.5
2023-03-26T12:40:29.693Z,1100
2023-03-26T12:42:13.449Z,1098.7
2023-03-26T12:43:57.106Z,1095.9
2023-03-26T12:45:40.783Z,1094.5
2023-03-26T12:47:24.495Z,1090.8
2023-03-26T12:49:08.177Z,1087.2
2023-03-26T12:50:51.914Z,1086.3
2023-03-26T12:52:35.590Z,1090.1
2023-03-26T12:54:19.289Z,1091.2
2023-03-26T12:56:03.027Z,1086.8
2023-03-26T12:57:46.792Z,1084.2
2023-03-26T12:59:30.574Z,1083.2
2023-03-26T13:01:14.320Z,1081.4
2023-03-26T13:02:57.859Z,1082.1
2023-03-26T13:04:41.507Z,1085.6
2023-03-26T13:06:25.225Z,1085.8
2023-03-26T13:08:08.910Z,1083.6
2023-03-26T13:09:52.614Z,1084.6
2023-03-26T13:11:36.348Z,1085.2
2023-03-26T13:13:20.045Z,1084.2
2023-03-26T13:15:03.740Z,1080.2
2023-03-26T13:16:47.427Z,1079.6
2023-03-26T13:18:31.152Z,1100.7
2023-03-26T13:20:14.852Z,1128.3
2023-03-26T13:21:58.653Z,1131.9
2023-03-26T13:23:42.236Z,1134.1
2023-03-26T13:25:25.943Z,1135.9
2023-03-26T13:27:09.646Z,1138.7
2023-03-26T13:28:53.390Z,1145.5
2023-03-26T13:30:37.071Z,1161.5
2023-03-26T13:32:20.753Z,1177.2
2023-03-26T13:35:48.175Z,1192.5
2023-03-26T13:37:31.871Z,1194.9
2023-03-26T13:39:15.566Z,1193.5
2023-03-26T13:40:59.265Z,1191.5
2023-03-26T13:42:42.978Z,1197.2
2023-03-26T13:44:26.697Z,1198.5
2023-03-26T13:46:10.376Z,1199.8
2023-03-26T13:47:54.098Z,1201.9
2023-03-26T13:49:37.776Z,1198.2
2023-03-26T13:51:21.471Z,1199.8
2023-03-26T13:53:05.188Z,1197.4
2023-03-26T13:54:48.889Z,1194.6
2023-03-26T13:56:32.588Z,1195.2
2023-03-26T13:58:16.299Z,1193.3
2023-03-26T14:00:00.001Z,1193.1
2023-03-26T14:01:43.699Z,1189.9
2023-03-26T14:03:27.403Z,1188.7
2023-03-26T14:05:11.112Z,1182.7
2023-03-26T14:06:54.828Z,1180
2023-03-26T14:08:38.501Z,1181.7
2023-03-26T14:10:22.204Z,1181.7
2023-03-26T14:12:05.911Z,1178
2023-03-26T14:13:49.631Z,1176.5
2023-03-26T14:15:33.391Z,1177.2
2023-03-26T14:17:17.007Z,1170.9
2023-03-26T14:19:00.725Z,1167.1
2023-03-26T14:20:44.417Z,1164.6
2023-03-26T14:22:28.117Z,1159.1
2023-03-26T14:24:11.827Z,1161.9
2023-03-26T14:25:55.541Z,1158
2023-03-26T14:27:39.228Z,1151.9
2023-03-26T14:29:22.957Z,1146.4
2023-03-26T14:31:06.628Z,1141.5
2023-03-26T14:32:50.343Z,1135
2023-03-26T14:34:34.038Z,1126.8
2023-03-26T14:36:17.738Z,1121.2
2023-03-26T14:38:01.455Z,1118.4
2023-03-26T14:39:45.149Z,1116.8
2023-03-26T14:41:28.854Z,1117.2
2023-03-26T14:43:12.546Z,1113.2
2023-03-26T14:44:56.247Z,1108
2023-03-26T14:46:39.983Z,1105
2023-03-26T14:48:23.660Z,1098.4
2023-03-26T14:50:07.365Z,1096.2
2023-03-26T14:51:51.060Z,1096.6
2023-03-26T14:53:34.766Z,1098.5
2023-03-26T14:55:18.461Z,1097.7
2023-03-26T14:57:02.173Z,1096.2
2023-03-26T14:58:45.864Z,1096.2
2023-03-26T15:00:29.601Z,1102.4
2023-03-26T15:02:13.286Z,1107.2
2023-03-26T15:03:56.969Z,1104.4
2023-03-26T15:05:40.698Z,1105
2023-03-26T15:07:24.382Z,1106.1
2023-03-26T15:09:08.144Z,1105.7
2023-03-26T15:10:51.775Z,1099.5
2023-03-26T15:12:35.485Z,1094.4
2023-03-26T15:14:19.196Z,1094.2
2023-03-26T15:16:02.896Z,1092.5
2023-03-26T15:17:46.598Z,1092.5
2023-03-26T15:19:30.299Z,1095.4
2023-03-26T15:21:14.005Z,1095.7
2023-03-26T15:22:57.697Z,1094
2023-03-26T15:24:41.423Z,1096.6
2023-03-26T15:26:25.229Z,1100.8
2023-03-26T15:28:08.811Z,1100.6
2023-03-26T15:29:52.513Z,1098.4
2023-03-26T15:31:36.235Z,1101.9
2023-03-26T15:33:19.916Z,1101.6
2023-03-26T15:35:03.647Z,1099.3
2023-03-26T15:36:47.330Z,1098.2
2023-03-26T15:38:31.035Z,1095.6
2023-03-26T15:40:14.800Z,1094.3
2023-03-26T15:41:58.449Z,1092.5
2023-03-26T15:43:42.138Z,1093.6
2023-03-26T15:45:25.839Z,1092.4
2023-03-26T15:47:09.537Z,1096.4
2023-03-26T15:48:53.250Z,1094.5
2023-03-26T15:50:36.941Z,1096.6
2023-03-26T15:52:20.653Z,1094.5
2023-03-26T15:54:04.356Z,1091.6
2023-03-26T15:55:48.059Z,1086.6
2023-03-26T15:57:31.761Z,1075.7
2023-03-26T15:59:15.533Z,1071.1
2023-03-26T16:00:59.222Z,1068.6
2023-03-26T16:02:42.866Z,1066.1
2023-03-26T16:04:26.568Z,1066.2
2023-03-26T16:06:10.268Z,1066.8
2023-03-26T16:07:53.972Z,1060.3
2023-03-26T16:09:37.667Z,1052.2
2023-03-26T16:11:21.374Z,1052.9
2023-03-26T16:13:05.079Z,1052.3
2023-03-26T16:16:32.526Z,1052.5
2023-03-26T16:18:16.197Z,1053.7
2023-03-26T16:19:59.886Z,1053.9
2023-03-26T16:21:43.659Z,1051.2
2023-03-26T16:23:27.297Z,1051.9
2023-03-26T16:25:11.000Z,1052.3
2023-03-26T16:26:54.706Z,1051.8
2023-03-26T16:28:38.413Z,1051.3
2023-03-26T16:30:22.107Z,1052.1
2023-03-26T16:32:05.803Z,1051
2023-03-26T16:33:49.514Z,1053.6
2023-03-26T16:35:33.217Z,1053
2023-03-26T16:37:16.910Z,1053.7
2023-03-26T16:39:00.617Z,1055.6
2023-03-26T16:40:44.362Z,1052.9
2023-03-26T16:42:28.023Z,1049.5
2023-03-26T16:44:11.756Z,1055.8
2023-03-26T16:45:55.425Z,1057.6
2023-03-26T16:47:39.138Z,1056.1
2023-03-26T16:49:22.842Z,1054.9
2023-03-26T16:51:06.544Z,1054.2
2023-03-26T16:52:50.240Z,1057
2023-03-26T16:54:33.947Z,1053.5
2023-03-26T16:56:17.646Z,1050.7
2023-03-26T16:58:01.361Z,1049.6
2023-03-26T16:59:45.065Z,1048
2023-03-26T17:01:28.753Z,1047.1
2023-03-26T17:03:12.459Z,1047.7
2023-03-26T17:04:56.145Z,1048.9
2023-03-26T17:06:39.878Z,1051.3
2023-03-26T17:08:23.567Z,1051.6
2023-03-26T17:10:07.344Z,1049.2
2023-03-26T17:11:50.961Z,1046.6
2023-03-26T17:13:34.664Z,1046.1
2023-03-26T17:15:18.368Z,1051.1
2023-03-26T17:17:02.078Z,1047.4
2023-03-26T17:18:45.789Z,1047.5
2023-03-26T17:20:29.480Z,1044.1
2023-03-26T17:22:13.174Z,1044.1
2023-03-26T17:23:56.879Z,1045.4
2023-03-26T17:25:40.586Z,1047.4
2023-03-26T17:27:24.294Z,1047.2
2023-03-26T17:29:07.984Z,1045.4
2023-03-26T17:30:51.779Z,1044.2
2023-03-26T17:32:35.402Z,1044.5
2023-03-26T17:34:19.096Z,1050.4
2023-03-26T17:36:02.805Z,1053
2023-03-26T17:37:46.501Z,1052.3
2023-03-26T17:39:30.221Z,1049.2
2023-03-26T17:41:13.916Z,1046.7
2023-03-26T17:42:57.607Z,1045.2
2023-03-26T17:44:41.308Z,1045.3
2023-03-26T17:46:25.044Z,1046.2
2023-03-26T17:48:08.722Z,1050.6
2023-03-26T17:49:52.433Z,1049.3
2023-03-26T17:51:36.118Z,1047.9
2023-03-26T17:53:19.828Z,1044.9
2023-03-26T17:55:03.531Z,1047.1
2023-03-26T17:56:47.231Z,1051.4
2023-03-26T17:58:30.933Z,1057.4
2023-03-26T18:00:14.640Z,1061.5
2023-03-26T18:01:58.339Z,1065.2
2023-03-26T18:03:42.046Z,1064.9
2023-03-26T18:05:25.747Z,1048.8
2023-03-26T18:07:09.440Z,1055.3
2023-03-26T18:08:53.169Z,1072.2
2023-03-26T18:10:36.868Z,1064.5
2023-03-26T18:12:20.558Z,1063
2023-03-26T18:14:04.323Z,1050.2
2023-03-26T18:15:47.966Z,1037.4
2023-03-26T18:17:31.671Z,1040.5
2023-03-26T18:19:15.362Z,1012.1
2023-03-26T18:20:59.077Z,1016.8
2023-03-26T18:22:42.763Z,1046.9
2023-03-26T18:24:26.474Z,1052.8
2023-03-26T18:26:10.176Z,1057.1
2023-03-26T18:27:53.881Z,1053.8
2023-03-26T18:29:37.581Z,1050.5
2023-03-26T18:31:21.302Z,1038.2
2023-03-26T18:33:05.026Z,1031.8
2023-03-26T18:34:48.687Z,1032.2
2023-03-26T18:36:32.386Z,1227.6
2023-03-26T18:38:16.084Z,1312.2
2023-03-26T18:39:59.780Z,1330.4
2023-03-26T18:41:43.485Z,1321.9
2023-03-26T18:43:27.192Z,1317.1
2023-03-26T18:45:10.903Z,1309.2
2023-03-26T18:46:54.599Z,1296.9
2023-03-26T18:48:38.340Z,1239.8
2023-03-26T18:50:22.009Z,1188.9
2023-03-26T18:52:05.764Z,1191.5
2023-03-26T18:53:49.410Z,1187.5
2023-03-26T18:55:33.119Z,1188.5
2023-03-26T18:57:16.818Z,1188.5
2023-03-26T18:59:00.540Z,1189.6
2023-03-26T19:00:44.216Z,1191.7
2023-03-26T19:02:27.924Z,1196.2
2023-03-26T19:04:11.640Z,1193.7
2023-03-26T19:05:55.338Z,1187.7
2023-03-26T19:07:39.033Z,1186.3
2023-03-26T19:09:22.730Z,1180.9
2023-03-26T19:11:06.450Z,1169.2
2023-03-26T19:12:50.144Z,1152.5
2023-03-26T19:14:33.924Z,1134.2
2023-03-26T19:16:17.545Z,1132.8
2023-03-26T19:18:01.258Z,1123.8
2023-03-26T19:19:44.980Z,1116.3
2023-03-26T19:21:28.657Z,1110.9
2023-03-26T19:23:12.351Z,1107
2023-03-26T19:24:56.061Z,1099.1
2023-03-26T19:26:39.761Z,1092.8
2023-03-26T19:28:23.462Z,1090.6
2023-03-26T19:30:07.186Z,1084
2023-03-26T19:31:50.867Z,1077.3
2023-03-26T19:33:34.565Z,1078.3
2023-03-26T19:35:18.271Z,1081.4
2023-03-26T19:37:01.979Z,1081.2
2023-03-26T19:38:45.885Z,1083.6
2023-03-26T19:40:29.574Z,1086
2023-03-26T19:42:13.231Z,1084.8
2023-03-26T19:43:56.963Z,1080.5
2023-03-26T19:45:40.502Z,1071.6
2023-03-26T19:47:24.321Z,1069.3
2023-03-26T19:49:08.037Z,1066.6
2023-03-26T19:50:51.763Z,1064.9
2023-03-26T19:52:35.431Z,1060.6
2023-03-26T19:54:19.173Z,1057.9
2023-03-26T19:56:02.875Z,1059.8
2023-03-26T19:57:46.659Z,1059.6
2023-03-26T19:59:30.189Z,1061.3
2023-03-26T20:01:13.938Z,1061.5
2023-03-26T20:02:57.700Z,1062.9
2023-03-26T20:04:41.371Z,1060.1
2023-03-26T20:06:24.933Z,1058.1
2023-03-26T20:08:08.817Z,1070.6
2023-03-26T20:09:52.336Z,1092.5
2023-03-26T20:11:36.231Z,1110.9
2023-03-26T20:13:19.808Z,1116.5
2023-03-26T20:15:03.649Z,1118.6
2023-03-26T20:16:47.325Z,1109.2
2023-03-26T20:18:31.001Z,1107
2023-03-26T20:20:14.549Z,1104.7
2023-03-26T20:21:58.339Z,1093.3
2023-03-26T20:23:42.049Z,1086.1
2023-03-26T20:25:25.833Z,1080.8
2023-03-26T20:27:09.549Z,1078.6
2023-03-26T20:28:53.207Z,1083.2
2023-03-26T20:30:37.080Z,1086.7
2023-03-26T20:32:20.620Z,1082.9
2023-03-26T20:34:04.334Z,1086.5
2023-03-26T20:35:48.033Z,1088.2
2023-03-26T20:37:31.636Z,1089.6
2023-03-26T20:39:15.356Z,1088.8
2023-03-26T20:40:58.983Z,1089.8
2023-03-26T20:42:42.799Z,1091.2
2023-03-26T20:44:26.399Z,1091.2
2023-03-26T20:46:10.093Z,1089.7
2023-03-26T20:47:53.788Z,1091.8
2023-03-26T20:49:37.489Z,1092.1
2023-03-26T20:51:21.304Z,1089.5
2023-03-26T20:53:04.904Z,1089
2023-03-26T20:54:48.747Z,1087.4
2023-03-26T20:56:32.376Z,1088.7
2023-03-26T20:58:16.017Z,1088
2023-03-26T20:59:59.735Z,1088.4
2023-03-26T21:01:43.468Z,1087.4
2023-03-26T21:03:27.102Z,1087.7
2023-03-26T21:05:10.820Z,1087.8
2023-03-26T21:06:54.557Z,1089
2023-03-26T21:08:38.217Z,1087.9
2023-03-26T21:10:21.910Z,1086.6
2023-03-26T21:12:05.613Z,1084.4
2023-03-26T21:13:49.344Z,1080
2023-03-26T21:15:33.019Z,1082.3
2023-03-26T21:17:16.766Z,1089.2
2023-03-26T21:19:00.471Z,1094.5
2023-03-26T21:20:44.123Z,1093.8
2023-03-26T21:22:27.908Z,1090.4
2023-03-26T21:24:11.539Z,1087.6
2023-03-26T21:25:55.238Z,1090
2023-03-26T21:27:38.952Z,1090.7
2023-03-26T21:29:22.632Z,1091.5
2023-03-26T21:31:06.345Z,1093.5
2023-03-26T21:32:50.060Z,1097.8
2023-03-26T21:34:33.896Z,1098.5
2023-03-26T21:36:17.459Z,1098.6
2023-03-26T21:38:01.249Z,1097.9
2023-03-26T21:39:44.866Z,1097.3
2023-03-26T21:41:28.562Z,1102
2023-03-26T21:43:12.269Z,1104.3
2023-03-26T21:44:55.981Z,1103.8
2023-03-26T21:46:39.684Z,1105.4
2023-03-26T21:48:23.371Z,1104.9
2023-03-26T21:50:07.067Z,1102.1
2023-03-26T21:51:50.765Z,1099.2
2023-03-26T21:53:34.482Z,1095.9
2023-03-26T21:55:18.178Z,1100.9
2023-03-26T21:57:01.878Z,1111.3
2023-03-26T21:58:45.589Z,1113.7
2023-03-26T22:00:29.354Z,1111.5
2023-03-26T22:02:12.991Z,1109.3
2023-03-26T22:03:56.740Z,1106.4
2023-03-26T22:05:40.385Z,1095.3
2023-03-26T22:07:24.113Z,1102.9
2023-03-26T22:09:07.802Z,1097.7
2023-03-26T22:10:51.512Z,1097.4
2023-03-26T22:12:35.208Z,1100.8